< Cyclone 199304 1993 Season Cyclone 199306 >
Cyclone 199305 (POLLY)
General InformationTrack Information on Google MapsDetailed Wind InformationList of All Images || ResourceGoogle EarthGE AnimationAtom FeedGeoJSON
Detalied Best Track (Time Zone = UTC)
Year Month Day Hour Lat. Long. Pressure (hPa) Wind (kt) Class Image Chart
1993 2 24 12 -14.6 157.7 998 30 2 Image --
1993 2 24 18 -15.2 157.8 996 30 2 Image --
1993 2 25 00 -15.9 158.0 995 35 3 Image --
1993 2 25 06 -16.3 158.2 995 40 3 Image --
1993 2 25 12 -16.7 158.5 990 40 3 Image --
1993 2 25 18 -17.3 158.8 980 55 4 Image --
1993 2 26 00 -17.6 158.9 975 60 4 Image --
1993 2 26 06 -18.0 159.0 970 65 5 Image --
1993 2 26 12 -18.0 159.1 965 70 5 Image --
1993 2 26 18 -18.1 159.2 960 75 5 Image --
1993 2 27 00 -18.2 159.5 960 75 5 Image --
1993 2 27 06 -18.3 159.5 960 80 5 Image --
1993 2 27 12 -18.3 159.9 955 80 5 Image --
1993 2 27 18 -18.3 160.1 955 80 5 Image --
1993 2 28 00 -18.5 160.1 955 80 5 Image --
1993 2 28 06 -19.0 160.0 955 80 5 Image --
1993 2 28 12 -19.3 160.0 960 80 5 Image --
1993 2 28 18 -19.7 160.1 960 80 5 Image --
1993 3 1 00 -20.5 160.2 955 85 5 Image --
1993 3 1 06 -21.1 160.8 955 85 5 Image --
1993 3 1 12 -22.2 162.2 955 86 5 Image --
< Cyclone 199304 1993 Season Cyclone 199306 >

Help